createdAt,value
2022-12-12T00:00:34.121Z,1.00
2022-12-12T00:03:00.732Z,4.40
2022-12-12T00:05:27.408Z,26.50
2022-12-12T00:07:54.011Z,51.10
2022-12-12T00:10:20.677Z,66.30
2022-12-12T00:12:47.224Z,99.90
2022-12-12T00:15:14.171Z,99.90
2022-12-12T00:17:40.987Z,99.90
2022-12-12T00:20:07.643Z,99.90
2022-12-12T00:22:34.179Z,99.90
2022-12-12T00:25:00.774Z,99.90
2022-12-12T00:27:27.328Z,99.90
2022-12-12T00:29:54.313Z,99.90
2022-12-12T00:32:20.931Z,99.90
2022-12-12T00:34:47.663Z,99.90
2022-12-12T00:37:14.219Z,99.90
2022-12-12T00:39:40.833Z,99.90
2022-12-12T00:42:07.444Z,99.90
2022-12-12T00:44:34.360Z,99.90
2022-12-12T00:47:01.080Z,1.00
2022-12-12T00:49:27.620Z,1.00
2022-12-12T00:51:54.304Z,1.00
2022-12-12T00:54:20.863Z,1.00
2022-12-12T00:56:47.418Z,1.00
2022-12-12T00:59:14.977Z,1.00
2022-12-12T01:01:41.602Z,1.00
2022-12-12T01:04:08.169Z,1.00
2022-12-12T01:06:34.776Z,1.00
2022-12-12T01:09:01.934Z,1.00
2022-12-12T01:11:28.603Z,1.00
2022-12-12T01:13:55.201Z,1.00
2022-12-12T01:16:21.867Z,1.00
2022-12-12T01:18:48.489Z,1.00
2022-12-12T01:21:16.137Z,1.00
2022-12-12T01:23:42.734Z,1.00
2022-12-12T01:26:13.417Z,1.00
2022-12-12T01:28:39.996Z,1.00
2022-12-12T01:31:06.716Z,1.00
2022-12-12T01:33:33.289Z,1.00
2022-12-12T01:36:00.060Z,1.00
2022-12-12T01:38:26.727Z,1.00
2022-12-12T01:40:53.336Z,12.50
2022-12-12T01:43:20.203Z,28.40
2022-12-12T01:45:53.060Z,47.10
2022-12-12T01:48:20.056Z,67.90
2022-12-12T01:50:46.641Z,99.90
2022-12-12T01:53:13.384Z,99.90
2022-12-12T01:55:39.924Z,99.90
2022-12-12T01:58:06.496Z,99.90
2022-12-12T02:00:33.124Z,99.90
2022-12-12T02:02:59.911Z,99.90
2022-12-12T02:05:39.692Z,99.90
2022-12-12T02:08:06.654Z,99.90
2022-12-12T02:10:33.244Z,99.90
2022-12-12T02:13:02.372Z,99.90
2022-12-12T02:15:29.812Z,99.90
2022-12-12T02:18:12.794Z,99.90
2022-12-12T02:20:53.985Z,99.90
2022-12-12T02:23:35.885Z,99.90
2022-12-12T02:26:21.224Z,99.90
2022-12-12T02:28:56.951Z,99.90
2022-12-12T02:31:27.426Z,99.90
2022-12-12T02:33:59.068Z,99.90
2022-12-12T02:36:36.991Z,99.90
2022-12-12T02:39:07.020Z,99.90
2022-12-12T02:41:43.883Z,99.90
2022-12-12T02:44:30.382Z,99.90
2022-12-12T02:47:07.976Z,99.90
2022-12-12T02:49:53.426Z,99.90
2022-12-12T02:52:20.279Z,99.90
2022-12-12T02:54:48.499Z,99.90
2022-12-12T02:57:19.300Z,99.90
2022-12-12T02:59:50.656Z,99.90
2022-12-12T03:02:25.160Z,99.90
2022-12-12T03:05:14.082Z,99.90
2022-12-12T03:07:50.193Z,99.90
2022-12-12T03:10:27.026Z,99.90
2022-12-12T03:13:00.548Z,99.90
2022-12-12T03:15:33.611Z,99.90
2022-12-12T03:18:12.367Z,99.90
2022-12-12T03:20:44.984Z,99.90
2022-12-12T03:23:15.137Z,99.90
2022-12-12T03:25:44.659Z,99.90
2022-12-12T03:28:25.327Z,99.90
2022-12-12T03:30:52.701Z,99.90
2022-12-12T03:33:20.449Z,99.90
2022-12-12T03:35:47.961Z,99.90
2022-12-12T03:38:16.524Z,99.90
2022-12-12T03:41:01.803Z,99.90
2022-12-12T03:43:29.740Z,99.90
2022-12-12T03:46:03.071Z,99.90
2022-12-12T03:48:30.624Z,99.90
2022-12-12T03:51:09.694Z,99.90
2022-12-12T03:53:44.855Z,99.90
2022-12-12T03:56:14.409Z,1.00
2022-12-12T03:58:41.041Z,1.00
2022-12-12T04:01:08.333Z,1.00
2022-12-12T04:03:39.165Z,1.00
2022-12-12T04:06:28.334Z,1.00
2022-12-12T04:09:14.645Z,1.00
2022-12-12T04:12:02.481Z,99.90
2022-12-12T04:14:42.150Z,99.90
2022-12-12T04:17:09.713Z,99.90
2022-12-12T04:19:56.237Z,99.90
2022-12-12T04:22:41.632Z,99.90
2022-12-12T04:25:11.285Z,99.90
2022-12-12T04:27:39.739Z,1.00
2022-12-12T04:30:07.840Z,1.00
2022-12-12T04:32:38.276Z,1.00
2022-12-12T04:35:06.067Z,1.00
2022-12-12T04:37:34.768Z,1.00
2022-12-12T04:40:01.878Z,1.00
2022-12-12T04:42:29.740Z,1.00
2022-12-12T04:44:58.210Z,1.00
2022-12-12T04:47:24.788Z,1.00
2022-12-12T04:49:51.335Z,1.00
2022-12-12T04:52:18.008Z,1.00
2022-12-12T04:55:17.384Z,1.00
2022-12-12T04:57:48.415Z,1.00
2022-12-12T05:00:15.086Z,1.00
2022-12-12T05:02:44.983Z,1.00
2022-12-12T05:05:28.346Z,1.00
2022-12-12T05:07:56.111Z,1.00
2022-12-12T05:10:22.670Z,99.90
2022-12-12T05:12:50.711Z,99.90
2022-12-12T05:15:17.759Z,99.90
2022-12-12T05:18:17.032Z,99.90
2022-12-12T05:20:43.692Z,99.90
2022-12-12T05:23:10.294Z,99.90
2022-12-12T05:25:36.888Z,99.90
2022-12-12T05:28:03.457Z,99.90
2022-12-12T05:30:30.152Z,99.90
2022-12-12T05:32:56.880Z,99.90
2022-12-12T05:35:23.519Z,99.90
2022-12-12T05:37:52.127Z,99.90
2022-12-12T05:40:18.904Z,99.90
2022-12-12T05:42:45.512Z,99.90
2022-12-12T05:45:12.373Z,99.90
2022-12-12T05:47:39.378Z,99.90
2022-12-12T05:50:06.247Z,99.90
2022-12-12T05:52:32.921Z,99.90
2022-12-12T05:54:59.467Z,99.90
2022-12-12T05:57:25.994Z,99.90
2022-12-12T05:59:52.552Z,99.90
2022-12-12T06:02:19.328Z,99.90
2022-12-12T06:04:45.968Z,99.90
2022-12-12T06:07:12.512Z,99.90
2022-12-12T06:09:39.091Z,99.90
2022-12-12T06:12:05.723Z,99.90
2022-12-12T06:14:32.300Z,99.90
2022-12-12T06:16:58.984Z,99.90
2022-12-12T06:19:25.550Z,99.90
2022-12-12T06:21:52.162Z,99.90
2022-12-12T06:24:18.792Z,99.90
2022-12-12T06:26:45.338Z,99.90
2022-12-12T06:29:12.157Z,99.90
2022-12-12T06:31:38.766Z,99.90
2022-12-12T06:34:05.358Z,99.90
2022-12-12T06:36:31.906Z,99.90
2022-12-12T06:38:58.967Z,99.90
2022-12-12T06:41:25.825Z,99.90
2022-12-12T06:43:52.451Z,1.00
2022-12-12T06:46:19.955Z,1.00
2022-12-12T06:48:46.608Z,1.00
2022-12-12T06:51:14.411Z,1.00
2022-12-12T06:53:40.968Z,1.00
2022-12-12T06:56:08.169Z,99.90
2022-12-12T06:58:34.778Z,99.90
2022-12-12T07:01:01.357Z,99.90
2022-12-12T07:03:27.957Z,79.00
2022-12-12T07:05:54.534Z,34.50
2022-12-12T07:08:21.332Z,20.10
2022-12-12T07:10:47.943Z,19.20
2022-12-12T07:13:14.604Z,75.50
2022-12-12T07:15:44.848Z,99.90
2022-12-12T07:18:11.606Z,99.90
2022-12-12T07:20:38.993Z,99.90
2022-12-12T07:23:05.551Z,84.80
2022-12-12T07:25:32.134Z,62.60
2022-12-12T07:27:58.686Z,54.30
2022-12-12T07:30:25.276Z,24.30
2022-12-12T07:32:51.897Z,20.80
2022-12-12T07:35:18.506Z,47.40
2022-12-12T07:37:45.041Z,99.90
2022-12-12T07:40:12.430Z,99.90
2022-12-12T07:42:39.121Z,99.90
2022-12-12T07:45:05.974Z,99.90
2022-12-12T07:47:32.575Z,42.90
2022-12-12T07:49:59.138Z,1.00
2022-12-12T07:52:25.680Z,1.00
2022-12-12T07:54:52.429Z,1.00
2022-12-12T07:57:18.966Z,1.00
2022-12-12T07:59:45.556Z,1.00
2022-12-12T08:02:12.156Z,47.90
2022-12-12T08:04:38.845Z,17.30
2022-12-12T08:07:08.435Z,1.00
2022-12-12T08:09:36.204Z,1.00
2022-12-12T08:12:02.788Z,1.00
2022-12-12T08:14:29.380Z,1.00
2022-12-12T08:16:56.255Z,1.00
2022-12-12T08:19:23.006Z,1.00
2022-12-12T08:21:49.642Z,1.00
2022-12-12T08:24:16.297Z,1.00
2022-12-12T08:26:42.992Z,1.00
2022-12-12T08:29:09.874Z,1.00
2022-12-12T08:31:37.430Z,1.00
2022-12-12T08:34:04.054Z,1.00
2022-12-12T08:36:31.227Z,1.00
2022-12-12T08:39:04.191Z,1.00
2022-12-12T08:41:30.728Z,1.00
2022-12-12T08:43:57.294Z,1.00
2022-12-12T08:46:23.880Z,99.90
2022-12-12T08:48:50.494Z,99.90
2022-12-12T08:51:17.163Z,99.90
2022-12-12T08:53:44.782Z,99.90
2022-12-12T08:56:11.616Z,99.90
2022-12-12T08:58:38.200Z,99.90
2022-12-12T09:01:09.461Z,99.90
2022-12-12T09:03:36.004Z,99.90
2022-12-12T09:06:02.689Z,4.30
2022-12-12T09:08:29.262Z,1.00
2022-12-12T09:10:55.897Z,1.00
2022-12-12T09:13:22.449Z,1.00
2022-12-12T09:15:52.299Z,1.00
2022-12-12T09:18:19.441Z,1.00
2022-12-12T09:20:49.769Z,1.00
2022-12-12T09:23:16.498Z,1.00
2022-12-12T09:25:43.064Z,1.00
2022-12-12T09:28:11.113Z,1.00
2022-12-12T09:30:38.139Z,1.00
2022-12-12T09:33:04.717Z,1.00
2022-12-12T09:35:31.280Z,1.00
2022-12-12T09:37:57.811Z,1.00
2022-12-12T09:40:29.520Z,1.00
2022-12-12T09:42:56.264Z,1.00
2022-12-12T09:45:22.866Z,1.00
2022-12-12T09:47:56.926Z,1.00
2022-12-12T09:50:25.455Z,1.00
2022-12-12T09:52:52.596Z,1.00
2022-12-12T09:55:39.009Z,1.00
2022-12-12T09:58:07.613Z,1.00
2022-12-12T10:00:35.457Z,1.00
2022-12-12T10:03:05.235Z,1.00
2022-12-12T10:05:42.239Z,1.00
2022-12-12T10:08:19.537Z,1.00
2022-12-12T10:10:47.771Z,1.00
2022-12-12T10:13:24.977Z,1.00
2022-12-12T10:15:52.520Z,1.00
2022-12-12T10:18:26.943Z,1.00
2022-12-12T10:20:55.505Z,1.00
2022-12-12T10:23:40.999Z,1.40
2022-12-12T10:26:08.785Z,99.90
2022-12-12T10:28:35.531Z,99.90
2022-12-12T10:31:20.915Z,99.90
2022-12-12T10:33:47.477Z,99.90
2022-12-12T10:36:20.295Z,99.90
2022-12-12T10:38:53.843Z,99.90
2022-12-12T10:41:23.899Z,99.90
2022-12-12T10:43:56.035Z,99.90
2022-12-12T10:46:25.157Z,99.90
2022-12-12T10:48:51.816Z,99.90
2022-12-12T10:51:18.897Z,99.90
2022-12-12T10:53:45.722Z,99.90
2022-12-12T10:56:22.429Z,99.90
2022-12-12T10:58:58.538Z,99.90
2022-12-12T11:02:00.700Z,99.90
2022-12-12T11:04:17.031Z,99.90
2022-12-12T11:06:47.474Z,99.90
2022-12-12T11:09:18.085Z,99.90
2022-12-12T11:12:00.996Z,99.90
2022-12-12T11:14:35.444Z,99.90
2022-12-12T11:17:02.189Z,99.90
2022-12-12T11:19:35.801Z,99.90
2022-12-12T11:22:02.752Z,99.90
2022-12-12T11:24:30.203Z,99.90
2022-12-12T11:27:06.462Z,99.90
2022-12-12T11:29:32.983Z,99.90
2022-12-12T11:31:59.715Z,1.00
2022-12-12T11:34:26.321Z,99.90
2022-12-12T11:36:53.090Z,99.90
2022-12-12T11:39:23.701Z,99.90
2022-12-12T11:42:04.649Z,99.90
2022-12-12T11:44:32.899Z,1.40
2022-12-12T11:47:15.157Z,1.00
2022-12-12T11:49:48.647Z,1.00
2022-12-12T11:52:33.543Z,1.00
2022-12-12T11:55:00.204Z,1.00
2022-12-12T11:57:45.537Z,1.00
2022-12-12T12:00:32.803Z,1.00
2022-12-12T12:03:05.780Z,1.00
2022-12-12T12:05:35.689Z,1.00
2022-12-12T12:08:11.308Z,1.00
2022-12-12T12:10:53.420Z,1.00
2022-12-12T12:13:27.975Z,1.00
2022-12-12T12:15:54.701Z,1.00
2022-12-12T12:18:36.283Z,1.00
2022-12-12T12:21:06.398Z,1.00
2022-12-12T12:23:37.638Z,1.00
2022-12-12T12:26:07.435Z,1.00
2022-12-12T12:28:41.253Z,1.00
2022-12-12T12:31:11.138Z,1.00
2022-12-12T12:33:50.210Z,1.00
2022-12-12T12:36:21.436Z,1.00
2022-12-12T12:38:48.192Z,1.00
2022-12-12T12:41:20.852Z,1.00
2022-12-12T12:43:47.382Z,1.00
2022-12-12T12:46:17.094Z,1.00
2022-12-12T12:48:44.727Z,1.00
2022-12-12T12:51:19.499Z,1.00
2022-12-12T12:53:51.272Z,1.00
2022-12-12T12:56:26.660Z,1.00
2022-12-12T12:58:54.765Z,1.00
2022-12-12T13:01:23.526Z,1.00
2022-12-12T13:03:51.493Z,1.00
2022-12-12T13:06:19.183Z,1.00
2022-12-12T13:08:59.465Z,1.00
2022-12-12T13:11:36.629Z,1.00
2022-12-12T13:14:13.518Z,1.00
2022-12-12T13:16:40.084Z,1.00
2022-12-12T13:19:11.106Z,1.00
2022-12-12T13:21:49.350Z,1.00
2022-12-12T13:24:22.039Z,1.00
2022-12-12T13:27:01.389Z,1.00
2022-12-12T13:29:30.501Z,1.00
2022-12-12T13:32:16.003Z,1.00
2022-12-12T13:34:44.111Z,1.00
2022-12-12T13:37:14.354Z,1.00
2022-12-12T13:39:40.920Z,1.00
2022-12-12T13:42:08.206Z,1.00
2022-12-12T13:44:42.176Z,1.00
2022-12-12T13:47:17.752Z,1.00
2022-12-12T13:49:45.945Z,1.00
2022-12-12T13:52:21.603Z,1.00
2022-12-12T13:54:48.264Z,1.00
2022-12-12T13:57:20.704Z,1.00
2022-12-12T13:59:53.341Z,1.00
2022-12-12T14:02:25.531Z,1.00
2022-12-12T14:05:10.931Z,1.00
2022-12-12T14:07:37.705Z,1.00
2022-12-12T14:10:37.426Z,1.00
2022-12-12T14:13:22.282Z,1.00
2022-12-12T14:15:49.697Z,1.00
2022-12-12T14:18:33.430Z,1.00
2022-12-12T14:21:04.928Z,1.00
2022-12-12T14:23:35.520Z,1.00
2022-12-12T14:26:02.361Z,1.00
2022-12-12T14:28:29.654Z,1.00
2022-12-12T14:31:11.629Z,1.00
2022-12-12T14:33:41.239Z,1.00
2022-12-12T14:36:23.120Z,1.00
2022-12-12T14:39:01.887Z,1.00
2022-12-12T14:41:31.208Z,1.00
2022-12-12T14:44:36.617Z,1.00
2022-12-12T14:46:44.531Z,1.00
2022-12-12T14:49:12.636Z,1.00
2022-12-12T14:51:40.254Z,1.00
2022-12-12T14:54:10.543Z,1.00
2022-12-12T14:56:52.958Z,1.00
2022-12-12T14:59:25.959Z,1.00
2022-12-12T15:01:54.106Z,1.00
2022-12-12T15:04:25.598Z,1.00
2022-12-12T15:06:52.628Z,1.00
2022-12-12T15:09:19.206Z,1.00
2022-12-12T15:11:46.520Z,1.00
2022-12-12T15:14:20.371Z,1.00
2022-12-12T15:16:48.691Z,1.00
2022-12-12T15:19:16.800Z,18.20
2022-12-12T15:21:43.635Z,48.30
2022-12-12T15:24:17.331Z,99.90
2022-12-12T15:26:44.713Z,99.90
2022-12-12T15:29:15.424Z,99.90
2022-12-12T15:31:48.269Z,99.90
2022-12-12T15:34:31.339Z,99.90
2022-12-12T15:37:10.258Z,99.90
2022-12-12T15:39:36.964Z,99.90
2022-12-12T15:42:03.817Z,1.00
2022-12-12T15:44:30.437Z,1.00
2022-12-12T15:46:57.152Z,1.00
2022-12-12T15:49:39.710Z,1.00
2022-12-12T15:52:10.671Z,1.00
2022-12-12T15:54:37.214Z,1.00
2022-12-12T15:57:03.844Z,1.00
2022-12-12T15:59:31.819Z,1.00
2022-12-12T16:02:13.079Z,1.00
2022-12-12T16:04:39.757Z,1.10
2022-12-12T16:07:21.091Z,79.10
2022-12-12T16:10:00.714Z,99.90
2022-12-12T16:12:46.146Z,99.90
2022-12-12T16:15:19.588Z,99.90
2022-12-12T16:17:59.156Z,99.90
2022-12-12T16:20:30.257Z,99.90
2022-12-12T16:23:07.544Z,99.90
2022-12-12T16:25:34.317Z,99.90
2022-12-12T16:28:09.631Z,99.90
2022-12-12T16:30:36.878Z,99.90
2022-12-12T16:33:20.341Z,99.90
2022-12-12T16:35:47.076Z,99.90
2022-12-12T16:38:14.603Z,1.00
2022-12-12T16:40:41.857Z,1.00
2022-12-12T16:43:15.192Z,1.00
2022-12-12T16:45:41.881Z,1.00
2022-12-12T16:48:19.116Z,1.00
2022-12-12T16:50:45.934Z,1.00
2022-12-12T16:53:12.483Z,1.00
2022-12-12T16:55:43.139Z,1.00
2022-12-12T16:58:09.943Z,1.00
2022-12-12T17:00:36.688Z,1.00
2022-12-12T17:03:03.538Z,1.00
2022-12-12T17:05:30.475Z,1.00
2022-12-12T17:07:57.086Z,1.00
2022-12-12T17:10:26.642Z,1.00
2022-12-12T17:12:53.580Z,1.00
2022-12-12T17:15:21.515Z,1.00
2022-12-12T17:17:48.071Z,1.00
2022-12-12T17:20:14.856Z,1.00
2022-12-12T17:22:42.151Z,1.00
2022-12-12T17:25:08.790Z,1.00
2022-12-12T17:27:35.677Z,1.00
2022-12-12T17:30:02.230Z,1.00
2022-12-12T17:32:30.210Z,1.00
2022-12-12T17:34:56.792Z,1.00
2022-12-12T17:37:24.371Z,1.00
2022-12-12T17:39:51.129Z,1.00
2022-12-12T17:42:18.020Z,1.00
2022-12-12T17:44:44.561Z,1.00
2022-12-12T17:47:11.348Z,1.00
2022-12-12T17:49:37.899Z,1.00
2022-12-12T17:52:04.586Z,1.00
2022-12-12T17:54:31.204Z,1.00
2022-12-12T17:56:57.764Z,1.00
2022-12-12T17:59:24.310Z,1.00
2022-12-12T18:01:53.963Z,1.00
2022-12-12T18:04:27.947Z,1.00
2022-12-12T18:06:55.236Z,1.00
2022-12-12T18:09:21.903Z,1.00
2022-12-12T18:11:48.535Z,99.90
2022-12-12T18:14:19.387Z,99.90
2022-12-12T18:16:51.159Z,99.90
2022-12-12T18:19:18.574Z,99.90
2022-12-12T18:22:00.853Z,99.90
2022-12-12T18:24:29.992Z,99.90
2022-12-12T18:26:57.430Z,99.90
2022-12-12T18:29:24.177Z,99.90
2022-12-12T18:31:50.811Z,99.90
2022-12-12T18:34:20.090Z,99.90
2022-12-12T18:36:46.975Z,99.90
2022-12-12T18:39:13.643Z,99.90
2022-12-12T18:41:40.196Z,99.90
2022-12-12T18:44:07.387Z,99.90
2022-12-12T18:46:40.275Z,99.90
2022-12-12T18:49:09.533Z,99.90
2022-12-12T18:51:36.458Z,99.90
2022-12-12T18:54:06.091Z,99.90
2022-12-12T18:56:35.739Z,99.90
2022-12-12T18:59:02.325Z,99.90
2022-12-12T19:01:29.997Z,99.90
2022-12-12T19:03:57.028Z,99.90
2022-12-12T19:06:33.942Z,99.90
2022-12-12T19:09:20.839Z,99.90
2022-12-12T19:11:47.567Z,99.90
2022-12-12T19:14:14.830Z,99.90
2022-12-12T19:16:41.886Z,99.90
2022-12-12T19:19:12.107Z,99.90
2022-12-12T19:21:38.838Z,99.90
2022-12-12T19:24:09.050Z,99.90
2022-12-12T19:26:35.739Z,99.90
2022-12-12T19:29:03.574Z,99.90
2022-12-12T19:31:33.307Z,99.90
2022-12-12T19:34:00.145Z,99.90
2022-12-12T19:36:26.971Z,99.90
2022-12-12T19:38:53.615Z,99.90
2022-12-12T19:41:20.606Z,99.90
2022-12-12T19:43:47.393Z,99.90
2022-12-12T19:46:21.022Z,99.90
2022-12-12T19:48:48.290Z,99.90
2022-12-12T19:51:15.894Z,99.90
2022-12-12T19:53:43.871Z,99.90
2022-12-12T19:56:14.180Z,99.90
2022-12-12T19:58:41.436Z,99.90
2022-12-12T20:01:08.889Z,99.90
2022-12-12T20:03:35.498Z,99.90
2022-12-12T20:06:02.538Z,99.90
2022-12-12T20:08:29.980Z,99.90
2022-12-12T20:10:57.169Z,99.90
2022-12-12T20:13:23.776Z,99.90
2022-12-12T20:15:50.417Z,99.90
2022-12-12T20:18:17.068Z,99.90
2022-12-12T20:20:43.617Z,99.90
2022-12-12T20:23:10.254Z,99.90
2022-12-12T20:25:39.385Z,99.90
2022-12-12T20:28:05.961Z,99.90
2022-12-12T20:30:32.571Z,99.90
2022-12-12T20:32:59.293Z,99.90
2022-12-12T20:35:26.088Z,99.90
2022-12-12T20:37:52.800Z,99.90
2022-12-12T20:40:19.366Z,99.90
2022-12-12T20:42:51.778Z,99.90
2022-12-12T20:45:21.583Z,99.90
2022-12-12T20:47:48.139Z,99.90
2022-12-12T20:50:14.797Z,99.90
2022-12-12T20:52:41.406Z,99.90
2022-12-12T20:55:08.809Z,99.90
2022-12-12T20:57:35.373Z,99.90
2022-12-12T21:00:02.981Z,99.90
2022-12-12T21:02:30.445Z,99.90
2022-12-12T21:04:57.339Z,99.90
2022-12-12T21:07:23.893Z,99.90
2022-12-12T21:09:50.455Z,99.90
2022-12-12T21:12:17.199Z,99.90
2022-12-12T21:14:43.742Z,99.90
2022-12-12T21:17:10.287Z,99.90
2022-12-12T21:19:36.854Z,99.90
2022-12-12T21:22:04.042Z,99.90
2022-12-12T21:24:31.238Z,99.90
2022-12-12T21:26:57.991Z,99.90
2022-12-12T21:29:24.614Z,99.90
2022-12-12T21:31:52.552Z,99.90
2022-12-12T21:34:20.323Z,99.90
2022-12-12T21:36:49.179Z,99.90
2022-12-12T21:39:15.803Z,99.90
2022-12-12T21:41:43.820Z,99.90
2022-12-12T21:44:10.556Z,99.90
2022-12-12T21:46:39.217Z,99.90
2022-12-12T21:49:24.647Z,96.20
2022-12-12T21:51:51.337Z,77.20
2022-12-12T21:54:18.118Z,63.00
2022-12-12T21:56:44.657Z,33.10
2022-12-12T21:59:11.705Z,20.30
2022-12-12T22:01:38.342Z,18.10
2022-12-12T22:04:04.950Z,1.00
2022-12-12T22:06:32.904Z,1.00
2022-12-12T22:08:59.933Z,1.00
2022-12-12T22:11:47.559Z,1.00
2022-12-12T22:14:14.675Z,1.00
2022-12-12T22:16:41.257Z,1.00
2022-12-12T22:19:08.542Z,9.50
2022-12-12T22:21:35.265Z,5.00
2022-12-12T22:24:01.916Z,2.60
2022-12-12T22:26:29.735Z,1.60
2022-12-12T22:28:57.544Z,25.90
2022-12-12T22:31:26.224Z,21.10
2022-12-12T22:33:56.985Z,1.00
2022-12-12T22:36:33.449Z,1.00
2022-12-12T22:39:00.497Z,1.00
2022-12-12T22:41:27.333Z,1.00
2022-12-12T22:43:54.692Z,1.00
2022-12-12T22:46:21.640Z,1.00
2022-12-12T22:48:48.308Z,1.00
2022-12-12T22:51:15.603Z,1.00
2022-12-12T22:53:44.387Z,1.00
2022-12-12T22:56:11.567Z,1.00
2022-12-12T22:58:38.490Z,1.00
2022-12-12T23:01:11.984Z,1.00
2022-12-12T23:03:38.768Z,1.00
2022-12-12T23:06:29.451Z,1.00
2022-12-12T23:09:06.358Z,1.00
2022-12-12T23:11:33.125Z,1.00
2022-12-12T23:14:04.153Z,1.00
2022-12-12T23:16:31.156Z,1.00
2022-12-12T23:18:58.511Z,1.00
2022-12-12T23:21:25.165Z,1.00
2022-12-12T23:23:51.885Z,1.00
2022-12-12T23:26:19.715Z,1.00
2022-12-12T23:28:46.341Z,1.00
2022-12-12T23:31:14.743Z,1.00
2022-12-12T23:33:41.403Z,1.00
2022-12-12T23:36:08.496Z,1.00
2022-12-12T23:38:36.500Z,1.00
2022-12-12T23:41:06.581Z,1.00
2022-12-12T23:43:33.325Z,1.00
2022-12-12T23:46:32.407Z,1.00
2022-12-12T23:48:59.083Z,1.00
2022-12-12T23:51:26.185Z,1.00
2022-12-12T23:53:55.134Z,1.00
2022-12-12T23:56:21.788Z,1.00
2022-12-12T23:58:48.374Z,1.00
